createdAt,value
2023-04-09T00:00:16.846Z,9.80
2023-04-09T00:02:43.965Z,9.02
2023-04-09T00:05:11.284Z,10.82
2023-04-09T00:07:38.378Z,9.55
2023-04-09T00:10:06.311Z,9.90
2023-04-09T00:12:33.268Z,9.13
2023-04-09T00:15:00.264Z,8.98
2023-04-09T00:17:27.251Z,10.52
2023-04-09T00:19:54.443Z,9.38
2023-04-09T00:22:21.517Z,9.07
2023-04-09T00:24:48.475Z,8.60
2023-04-09T00:27:15.599Z,9.90
2023-04-09T00:29:42.735Z,8.73
2023-04-09T00:32:10.525Z,9.25
2023-04-09T00:34:38.948Z,9.15
2023-04-09T00:37:07.009Z,9.93
2023-04-09T00:39:34.094Z,9.15
2023-04-09T00:42:04.869Z,9.32
2023-04-09T00:44:31.818Z,9.23
2023-04-09T00:47:00.842Z,10.18
2023-04-09T00:49:27.821Z,9.07
2023-04-09T00:51:54.988Z,8.75
2023-04-09T00:54:22.172Z,8.05
2023-04-09T00:56:49.446Z,8.05
2023-04-09T00:59:16.914Z,9.85
2023-04-09T01:01:43.880Z,8.98
2023-04-09T01:04:11.252Z,9.32
2023-04-09T01:07:11.153Z,9.52
2023-04-09T01:09:43.677Z,9.07
2023-04-09T01:12:36.930Z,9.20
2023-04-09T01:15:08.831Z,9.15
2023-04-09T01:17:49.134Z,9.55
2023-04-09T01:20:22.989Z,9.75
2023-04-09T01:25:17.978Z,7.90
2023-04-09T01:28:17.835Z,7.82
2023-04-09T01:30:50.040Z,9.60
2023-04-09T01:33:19.167Z,9.30
2023-04-09T01:35:48.895Z,10.55
2023-04-09T01:38:19.968Z,9.57
2023-04-09T01:40:47.827Z,9.32
2023-04-09T01:43:15.857Z,11.27
2023-04-09T01:45:45.660Z,10.43
2023-04-09T01:48:14.316Z,9.73
2023-04-09T01:50:41.845Z,10.20
2023-04-09T01:53:09.266Z,10.13
2023-04-09T01:55:36.183Z,9.38
2023-04-09T01:58:03.686Z,9.50
2023-04-09T02:00:40.289Z,10.00
2023-04-09T02:03:11.547Z,9.43
2023-04-09T02:05:44.680Z,8.65
2023-04-09T02:08:19.557Z,10.55
2023-04-09T02:10:55.625Z,9.07
2023-04-09T02:13:24.674Z,10.25
2023-04-09T02:15:56.654Z,10.20
2023-04-09T02:18:29.030Z,9.85
2023-04-09T02:20:57.703Z,9.93
2023-04-09T02:23:25.641Z,10.30
2023-04-09T02:25:54.022Z,10.48
2023-04-09T02:28:21.178Z,10.88
2023-04-09T02:30:48.227Z,10.45
2023-04-09T02:33:15.409Z,10.95
2023-04-09T02:35:42.455Z,11.18
2023-04-09T02:38:14.664Z,11.23
2023-04-09T02:40:41.699Z,10.77
2023-04-09T02:43:09.954Z,10.82
2023-04-09T02:45:37.406Z,9.90
2023-04-09T02:48:04.528Z,10.43
2023-04-09T02:50:35.062Z,10.63
2023-04-09T02:53:03.032Z,10.68
2023-04-09T02:55:30.466Z,10.27
2023-04-09T02:57:57.438Z,10.85
2023-04-09T03:00:24.614Z,10.00
2023-04-09T03:02:52.297Z,9.50
2023-04-09T03:05:19.362Z,8.95
2023-04-09T03:07:47.463Z,9.43
2023-04-09T03:10:14.489Z,10.85
2023-04-09T03:12:41.596Z,10.68
2023-04-09T03:15:09.258Z,11.27
2023-04-09T03:17:36.144Z,10.73
2023-04-09T03:20:03.515Z,9.40
2023-04-09T03:22:39.975Z,10.63
2023-04-09T03:25:27.450Z,9.45
2023-04-09T03:27:55.598Z,9.30
2023-04-09T03:30:42.871Z,11.35
2023-04-09T03:33:10.497Z,9.48
2023-04-09T03:35:47.783Z,9.82
2023-04-09T03:38:16.239Z,10.82
2023-04-09T03:40:43.248Z,10.65
2023-04-09T03:43:10.359Z,10.25
2023-04-09T03:45:39.670Z,10.15
2023-04-09T03:48:17.294Z,10.25
2023-04-09T03:50:44.693Z,10.70
2023-04-09T03:53:14.989Z,10.98
2023-04-09T03:55:42.596Z,10.23
2023-04-09T03:58:16.828Z,9.98
2023-04-09T04:00:43.852Z,10.10
2023-04-09T04:03:26.835Z,8.73
2023-04-09T04:06:07.353Z,10.32
2023-04-09T04:08:51.335Z,9.95
2023-04-09T04:11:21.465Z,9.90
2023-04-09T04:13:52.232Z,10.93
2023-04-09T04:16:19.347Z,10.18
2023-04-09T04:18:46.356Z,11.52
2023-04-09T04:21:14.808Z,10.90
2023-04-09T04:23:45.327Z,10.85
2023-04-09T04:26:22.787Z,11.23
2023-04-09T04:28:50.215Z,10.52
2023-04-09T04:31:31.469Z,10.95
2023-04-09T04:33:59.882Z,11.32
2023-04-09T04:36:27.313Z,11.77
2023-04-09T04:38:54.471Z,11.65
2023-04-09T04:41:30.873Z,11.63
2023-04-09T04:44:08.415Z,11.57
2023-04-09T04:46:35.801Z,12.45
2023-04-09T04:49:02.961Z,10.77
2023-04-09T04:51:32.406Z,11.75
2023-04-09T04:54:07.051Z,11.70
2023-04-09T04:56:34.343Z,13.32
2023-04-09T04:59:07.128Z,10.77
2023-04-09T05:01:46.680Z,11.73
2023-04-09T05:04:14.001Z,11.93
2023-04-09T05:06:41.217Z,12.63
2023-04-09T05:09:12.845Z,12.18
2023-04-09T05:11:48.337Z,12.27
2023-04-09T05:14:21.570Z,10.20
2023-04-09T05:16:49.159Z,11.77
2023-04-09T05:19:18.148Z,12.70
2023-04-09T05:21:47.225Z,12.88
2023-04-09T05:24:20.561Z,11.25
2023-04-09T05:26:47.495Z,12.13
2023-04-09T05:29:14.648Z,12.75
2023-04-09T05:31:43.223Z,13.27
2023-04-09T05:34:24.194Z,12.20
2023-04-09T05:36:54.601Z,11.63
2023-04-09T05:39:23.405Z,12.27
2023-04-09T05:41:52.625Z,13.38
2023-04-09T05:44:31.449Z,13.50
2023-04-09T05:47:12.508Z,12.00
2023-04-09T05:49:48.975Z,11.30
2023-04-09T05:52:17.658Z,11.20
2023-04-09T05:54:44.523Z,12.35
2023-04-09T05:57:15.104Z,10.90
2023-04-09T05:59:45.836Z,11.65
2023-04-09T06:02:12.804Z,12.68
2023-04-09T06:04:40.026Z,11.88
2023-04-09T06:07:07.463Z,13.45
2023-04-09T06:09:36.098Z,12.43
2023-04-09T06:12:03.000Z,12.90
2023-04-09T06:14:32.938Z,12.50
2023-04-09T06:17:00.393Z,13.20
2023-04-09T06:19:27.725Z,12.65
2023-04-09T06:21:54.798Z,12.45
2023-04-09T06:24:21.788Z,13.63
2023-04-09T06:26:49.130Z,13.13
2023-04-09T06:29:16.193Z,12.40
2023-04-09T06:31:43.345Z,11.32
2023-04-09T06:34:11.221Z,12.73
2023-04-09T06:36:40.493Z,13.00
2023-04-09T06:39:07.621Z,12.80
2023-04-09T06:41:34.559Z,11.15
2023-04-09T06:44:09.808Z,12.52
2023-04-09T06:46:36.839Z,12.82
2023-04-09T06:49:03.865Z,12.05
2023-04-09T06:51:30.787Z,13.43
2023-04-09T06:53:57.808Z,12.85
2023-04-09T06:56:25.092Z,12.57
2023-04-09T06:58:52.256Z,12.52
2023-04-09T07:01:20.284Z,13.45
2023-04-09T07:03:47.373Z,12.43
2023-04-09T07:06:14.358Z,12.35
2023-04-09T07:08:41.359Z,10.77
2023-04-09T07:11:08.695Z,11.48
2023-04-09T07:13:36.007Z,12.27
2023-04-09T07:16:03.075Z,11.00
2023-04-09T07:18:31.177Z,11.52
2023-04-09T07:20:58.273Z,11.77
2023-04-09T07:23:26.163Z,12.43
2023-04-09T07:25:53.531Z,11.32
2023-04-09T07:28:20.652Z,11.27
2023-04-09T07:30:47.725Z,11.38
2023-04-09T07:33:14.672Z,9.90
2023-04-09T07:35:42.322Z,12.38
2023-04-09T07:38:09.333Z,10.45
2023-04-09T07:40:36.865Z,11.68
2023-04-09T07:43:04.840Z,10.90
2023-04-09T07:45:31.800Z,9.63
2023-04-09T07:47:58.962Z,11.27
2023-04-09T07:50:26.251Z,10.90
2023-04-09T07:52:53.263Z,11.63
2023-04-09T07:55:20.553Z,11.27
2023-04-09T07:57:48.642Z,11.55
2023-04-09T08:00:16.343Z,12.90
2023-04-09T08:02:44.100Z,11.90
2023-04-09T08:05:11.848Z,10.77
2023-04-09T08:07:39.021Z,11.88
2023-04-09T08:10:07.003Z,11.82
2023-04-09T08:12:34.570Z,10.38
2023-04-09T08:15:03.742Z,11.32
2023-04-09T08:17:31.230Z,11.27
2023-04-09T08:19:58.283Z,10.50
2023-04-09T08:22:25.416Z,9.85
2023-04-09T08:24:53.600Z,10.48
2023-04-09T08:27:21.531Z,12.52
2023-04-09T08:29:48.498Z,10.95
2023-04-09T08:32:16.060Z,11.40
2023-04-09T08:34:43.221Z,11.50
2023-04-09T08:37:10.247Z,13.45
2023-04-09T08:39:37.245Z,9.75
2023-04-09T08:42:07.316Z,11.13
2023-04-09T08:44:34.408Z,9.88
2023-04-09T08:47:02.740Z,9.95
2023-04-09T08:49:29.755Z,10.15
2023-04-09T08:51:57.121Z,9.75
2023-04-09T08:54:26.876Z,10.13
2023-04-09T08:56:53.919Z,9.68
2023-04-09T08:59:20.977Z,10.13
2023-04-09T09:01:52.942Z,9.65
2023-04-09T09:04:20.573Z,10.25
2023-04-09T09:06:47.717Z,9.52
2023-04-09T09:09:16.387Z,8.73
2023-04-09T09:11:48.675Z,9.50
2023-04-09T09:14:20.037Z,8.35
2023-04-09T09:16:56.403Z,9.52
2023-04-09T09:19:26.294Z,7.80
2023-04-09T09:21:57.536Z,10.52
2023-04-09T09:24:24.791Z,7.82
2023-04-09T09:26:52.457Z,9.45
2023-04-09T09:29:20.228Z,8.57
2023-04-09T09:31:56.778Z,10.45
2023-04-09T09:34:25.673Z,9.32
2023-04-09T09:36:52.948Z,9.60
2023-04-09T09:39:20.223Z,8.60
2023-04-09T09:41:48.910Z,7.90
2023-04-09T09:44:33.136Z,8.20
2023-04-09T09:47:03.724Z,8.15
2023-04-09T09:49:30.794Z,9.23
2023-04-09T09:52:00.780Z,7.68
2023-04-09T09:54:36.443Z,7.65
2023-04-09T09:57:07.795Z,9.02
2023-04-09T09:59:39.033Z,8.65
2023-04-09T10:02:08.853Z,8.05
2023-04-09T10:04:36.811Z,8.50
2023-04-09T10:07:08.385Z,8.57
2023-04-09T10:09:46.811Z,7.68
2023-04-09T10:12:14.219Z,9.07
2023-04-09T10:14:42.844Z,7.78
2023-04-09T10:17:10.131Z,8.77
2023-04-09T10:19:54.908Z,7.43
2023-04-09T10:22:27.059Z,7.68
2023-04-09T10:24:55.940Z,7.55
2023-04-09T10:27:22.921Z,8.70
2023-04-09T10:29:52.234Z,7.95
2023-04-09T10:32:26.677Z,8.15
2023-04-09T10:34:58.573Z,7.32
2023-04-09T10:37:27.582Z,8.20
2023-04-09T10:39:54.846Z,8.15
2023-04-09T10:42:33.042Z,7.53
2023-04-09T10:45:16.913Z,8.43
2023-04-09T10:47:44.362Z,7.60
2023-04-09T10:50:21.808Z,7.78
2023-04-09T10:52:59.773Z,8.40
2023-04-09T10:55:38.448Z,7.38
2023-04-09T10:58:12.770Z,8.85
2023-04-09T11:00:43.477Z,8.57
2023-04-09T11:03:30.697Z,8.60
2023-04-09T11:06:11.264Z,7.47
2023-04-09T11:08:38.969Z,8.02
2023-04-09T11:11:06.294Z,8.05
2023-04-09T11:13:34.503Z,8.20
2023-04-09T11:16:04.245Z,8.27
2023-04-09T11:18:34.024Z,7.72
2023-04-09T11:21:06.069Z,6.95
2023-04-09T11:23:33.943Z,7.15
2023-04-09T11:26:02.152Z,8.57
2023-04-09T11:28:29.151Z,7.53
2023-04-09T11:30:56.197Z,7.80
2023-04-09T11:33:23.421Z,8.30
2023-04-09T11:35:51.306Z,7.53
2023-04-09T11:38:18.276Z,7.03
2023-04-09T11:40:48.925Z,8.90
2023-04-09T11:43:17.092Z,8.70
2023-04-09T11:45:44.964Z,8.80
2023-04-09T11:48:13.122Z,8.65
2023-04-09T11:50:40.770Z,8.90
2023-04-09T11:53:20.941Z,8.20
2023-04-09T11:55:51.645Z,8.65
2023-04-09T11:58:22.299Z,8.20
2023-04-09T12:00:49.239Z,8.07
2023-04-09T12:03:16.855Z,8.60
2023-04-09T12:05:50.926Z,9.18
2023-04-09T12:08:23.944Z,8.10
2023-04-09T12:10:53.674Z,7.78
2023-04-09T12:13:21.709Z,7.38
2023-04-09T12:15:50.201Z,8.52
2023-04-09T12:18:17.740Z,7.85
2023-04-09T12:20:47.668Z,7.20
2023-04-09T12:23:16.055Z,8.75
2023-04-09T12:25:45.380Z,8.90
2023-04-09T12:28:15.842Z,7.78
2023-04-09T12:30:43.308Z,8.82
2023-04-09T12:33:11.387Z,8.73
2023-04-09T12:35:38.916Z,8.85
2023-04-09T12:38:06.274Z,8.52
2023-04-09T12:40:33.603Z,7.75
2023-04-09T12:43:00.480Z,8.02
2023-04-09T12:45:28.600Z,8.20
2023-04-09T12:47:55.631Z,8.52
2023-04-09T12:50:22.719Z,8.32
2023-04-09T12:52:50.507Z,8.15
2023-04-09T12:55:17.645Z,12.57
2023-04-09T12:57:47.257Z,8.75
2023-04-09T13:00:15.094Z,8.18
2023-04-09T13:02:42.454Z,8.90
2023-04-09T13:05:09.957Z,8.23
2023-04-09T13:07:38.041Z,8.15
2023-04-09T13:10:05.546Z,9.00
2023-04-09T13:12:32.699Z,8.13
2023-04-09T13:14:59.646Z,9.15
2023-04-09T13:17:26.719Z,9.55
2023-04-09T13:19:53.896Z,8.63
2023-04-09T13:22:21.014Z,7.60
2023-04-09T13:24:47.960Z,7.70
2023-04-09T13:27:16.570Z,9.48
2023-04-09T13:29:43.686Z,8.45
2023-04-09T13:32:11.309Z,7.65
2023-04-09T13:34:39.162Z,9.60
2023-04-09T13:37:06.300Z,8.65
2023-04-09T13:39:33.378Z,7.47
2023-04-09T13:42:03.629Z,9.18
2023-04-09T13:44:35.391Z,8.65
2023-04-09T13:47:02.577Z,8.85
2023-04-09T13:49:30.962Z,8.38
2023-04-09T13:51:58.339Z,10.07
2023-04-09T13:54:25.392Z,9.18
2023-04-09T13:56:52.354Z,8.10
2023-04-09T13:59:34.052Z,9.60
2023-04-09T14:02:19.730Z,9.45
2023-04-09T14:04:54.452Z,7.80
2023-04-09T14:07:46.153Z,8.07
2023-04-09T14:10:13.838Z,8.65
2023-04-09T14:13:05.298Z,8.73
2023-04-09T14:16:54.220Z,7.47
2023-04-09T14:21:20.197Z,8.15
2023-04-09T14:24:55.571Z,7.30
2023-04-09T14:28:11.207Z,8.07
2023-04-09T14:31:20.462Z,7.70
2023-04-09T15:54:04.323Z,9.25
2023-04-09T15:57:23.416Z,7.28
2023-04-09T16:06:00.120Z,9.55
2023-04-09T16:30:00.226Z,9.48
2023-04-09T17:20:14.956Z,10.23
2023-04-09T17:39:07.308Z,11.13
2023-04-09T18:03:32.343Z,11.82
2023-04-09T18:21:01.128Z,11.25
2023-04-09T18:28:30.765Z,12.13
2023-04-09T18:32:22.790Z,11.95
2023-04-09T18:35:29.107Z,11.10
2023-04-09T18:43:15.148Z,11.50
2023-04-09T18:46:43.691Z,12.80
2023-04-09T18:49:25.349Z,11.63
2023-04-09T18:52:13.685Z,12.07
2023-04-09T18:54:57.028Z,14.18
2023-04-09T18:58:16.214Z,11.15
2023-04-09T19:00:43.807Z,12.13
2023-04-09T19:03:23.660Z,12.20
2023-04-09T19:06:15.583Z,12.48
2023-04-09T19:09:04.753Z,11.98
2023-04-09T19:11:39.897Z,12.38
2023-04-09T19:14:11.719Z,11.85
2023-04-09T19:16:48.970Z,12.18
2023-04-09T19:19:18.000Z,11.80
2023-04-09T19:21:53.906Z,12.45
2023-04-09T19:24:23.412Z,12.80
2023-04-09T19:26:53.736Z,13.13
2023-04-09T19:29:26.744Z,14.45
2023-04-09T19:31:56.195Z,11.43
2023-04-09T19:34:24.677Z,13.23
2023-04-09T19:36:54.265Z,13.65
2023-04-09T19:39:24.007Z,12.82
2023-04-09T19:41:54.030Z,12.73
2023-04-09T19:44:24.237Z,13.05
2023-04-09T19:47:15.508Z,12.88
2023-04-09T19:49:45.745Z,10.98
2023-04-09T19:52:14.331Z,12.90
2023-04-09T19:54:44.912Z,11.45
2023-04-09T19:57:16.835Z,12.60
2023-04-09T19:59:50.026Z,13.15
2023-04-09T20:02:21.267Z,12.13
2023-04-09T20:04:52.781Z,12.52
2023-04-09T20:07:31.681Z,10.80
2023-04-09T20:10:09.131Z,11.68
2023-04-09T20:12:44.715Z,12.43
2023-04-09T20:15:15.716Z,12.63
2023-04-09T20:17:43.515Z,13.40
2023-04-09T20:20:12.068Z,11.30
2023-04-09T20:22:43.385Z,11.52
2023-04-09T20:25:16.652Z,11.32
2023-04-09T20:27:50.039Z,10.30
2023-04-09T20:30:20.155Z,12.27
2023-04-09T20:32:49.946Z,11.15
2023-04-09T20:35:23.213Z,12.27
2023-04-09T20:38:01.578Z,10.65
2023-04-09T20:40:38.063Z,12.40
2023-04-09T20:43:10.587Z,9.25
2023-04-09T20:45:40.361Z,12.05
2023-04-09T20:48:12.776Z,9.63
2023-04-09T20:50:42.644Z,9.63
2023-04-09T20:53:10.397Z,12.32
2023-04-09T20:55:46.064Z,10.80
2023-04-09T20:58:18.065Z,11.43
2023-04-09T21:00:59.215Z,11.02
2023-04-09T21:03:39.186Z,9.95
2023-04-09T21:06:11.222Z,10.10
2023-04-09T21:08:49.758Z,10.63
2023-04-09T21:11:24.915Z,10.15
2023-04-09T21:13:57.667Z,10.15
2023-04-09T21:16:33.192Z,9.68
2023-04-09T21:19:07.240Z,10.43
2023-04-09T21:21:35.394Z,9.23
2023-04-09T21:24:05.155Z,9.38
2023-04-09T21:26:49.514Z,9.27
2023-04-09T21:29:28.837Z,10.57
2023-04-09T21:32:08.450Z,10.25
2023-04-09T22:05:45.257Z,9.57
2023-04-09T22:09:27.455Z,9.85
2023-04-09T22:15:01.825Z,10.00
2023-04-09T23:11:29.791Z,8.18
